createdAt,value
2022-10-19T00:02:08.629Z,103175.91
2022-10-19T00:04:34.995Z,103178.53
2022-10-19T00:07:01.436Z,103176.78
2022-10-19T00:09:29.106Z,103176.03
2022-10-19T00:11:55.462Z,103183.16
2022-10-19T00:14:23.710Z,103179.78
2022-10-19T00:16:52.243Z,103171.16
2022-10-19T00:19:21.779Z,103166.84
2022-10-19T00:21:48.656Z,103168.59
2022-10-19T00:24:15.389Z,103164.22
2022-10-19T00:26:41.948Z,103170.25
2022-10-19T00:29:08.579Z,103161.69
2022-10-19T00:31:34.971Z,103172.47
2022-10-19T00:34:01.399Z,103163.97
2022-10-19T00:36:30.419Z,103170.16
2022-10-19T00:38:58.216Z,103169.38
2022-10-19T00:41:26.982Z,103163.28
2022-10-19T00:44:03.594Z,103163.34
2022-10-19T00:46:33.467Z,103167.88
2022-10-19T00:49:09.863Z,103167.97
2022-10-19T00:51:40.993Z,103168.81
2022-10-19T00:54:08.622Z,103161.09
2022-10-19T00:56:39.158Z,103162.16
2022-10-19T00:59:06.569Z,103163.13
2022-10-19T01:01:34.126Z,103161.38
2022-10-19T01:04:01.179Z,103162.19
2022-10-19T01:06:28.073Z,103156.09
2022-10-19T01:08:54.458Z,103159.66
2022-10-19T01:11:31.020Z,103164.06
2022-10-19T01:14:29.835Z,103156.31
2022-10-19T01:17:30.856Z,103154.63
2022-10-19T01:20:03.150Z,103142.50
2022-10-19T01:23:08.763Z,103152.16
2022-10-19T01:26:08.824Z,103146.97
2022-10-19T01:28:50.397Z,103140.94
2022-10-19T01:31:19.890Z,103138.34
2022-10-19T01:34:21.199Z,103141.84
2022-10-19T01:37:08.670Z,103132.53
2022-10-19T01:39:41.112Z,103132.75
2022-10-19T01:42:14.737Z,103131.97
2022-10-19T01:44:50.531Z,103133.72
2022-10-19T01:47:23.453Z,103132.91
2022-10-19T01:49:57.098Z,103130.31
2022-10-19T01:52:26.520Z,103128.59
2022-10-19T01:54:57.500Z,103130.44
2022-10-19T01:57:32.388Z,103130.56
2022-10-19T01:59:58.737Z,103127.91
2022-10-19T02:02:27.864Z,103126.97
2022-10-19T02:04:56.753Z,103134.84
2022-10-19T02:07:25.398Z,103139.34
2022-10-19T02:09:51.954Z,103132.44
2022-10-19T02:12:20.374Z,103131.69
2022-10-19T02:14:51.562Z,103133.47
2022-10-19T02:17:26.774Z,103134.38
2022-10-19T02:19:54.565Z,103131.81
2022-10-19T02:22:21.762Z,103134.44
2022-10-19T02:24:48.248Z,103122.34
2022-10-19T02:27:14.828Z,103122.34
2022-10-19T02:29:41.501Z,103131.06
2022-10-19T02:32:09.600Z,103136.41
2022-10-19T02:34:37.397Z,103131.31
2022-10-19T02:37:04.726Z,103127.81
2022-10-19T02:39:31.350Z,103134.72
2022-10-19T02:42:06.894Z,103130.38
2022-10-19T02:44:49.366Z,103121.69
2022-10-19T02:47:20.902Z,103120.78
2022-10-19T02:49:48.722Z,103110.13
2022-10-19T02:52:15.074Z,103113.47
2022-10-19T02:54:43.929Z,103118.63
2022-10-19T02:57:22.772Z,103103.03
2022-10-19T02:59:49.207Z,103104.75
2022-10-19T03:02:17.035Z,103107.47
2022-10-19T03:04:44.717Z,103114.47
2022-10-19T03:07:15.823Z,103108.50
2022-10-19T03:09:43.086Z,103105.88
2022-10-19T03:12:09.685Z,103116.34
2022-10-19T03:14:36.014Z,103099.00
2022-10-19T03:17:02.972Z,103106.94
2022-10-19T03:19:29.815Z,103101.81
2022-10-19T03:21:56.188Z,103102.69
2022-10-19T03:24:22.655Z,103102.72
2022-10-19T03:26:49.166Z,103094.16
2022-10-19T03:29:15.553Z,103091.75
2022-10-19T03:31:41.971Z,103088.25
2022-10-19T03:34:08.410Z,103089.00
2022-10-19T03:36:38.613Z,103095.03
2022-10-19T03:39:08.418Z,103094.31
2022-10-19T03:41:36.770Z,103089.16
2022-10-19T03:44:04.055Z,103091.81
2022-10-19T03:46:30.803Z,103094.50
2022-10-19T03:48:57.215Z,103098.91
2022-10-19T03:51:26.518Z,103096.56
2022-10-19T03:54:12.498Z,103092.31
2022-10-19T03:56:39.059Z,103089.69
2022-10-19T03:59:06.499Z,103088.78
2022-10-19T04:01:36.334Z,103088.72
2022-10-19T04:04:09.739Z,103092.16
2022-10-19T04:06:38.907Z,103095.75
2022-10-19T04:09:07.533Z,103088.84
2022-10-19T04:11:35.263Z,103090.66
2022-10-19T04:14:02.144Z,103090.66
2022-10-19T04:16:30.955Z,103085.50
2022-10-19T04:18:58.662Z,103086.38
2022-10-19T04:21:29.570Z,103090.78
2022-10-19T04:24:05.667Z,103090.78
2022-10-19T04:26:33.875Z,103096.84
2022-10-19T04:29:01.275Z,103094.28
2022-10-19T04:31:28.374Z,103090.78
2022-10-19T04:33:55.171Z,103099.47
2022-10-19T04:36:21.649Z,103097.75
2022-10-19T04:38:47.974Z,103095.16
2022-10-19T04:41:17.243Z,103088.25
2022-10-19T04:43:45.355Z,103085.50
2022-10-19T04:46:17.713Z,103088.88
2022-10-19T04:48:45.267Z,103092.38
2022-10-19T04:51:11.754Z,103092.44
2022-10-19T04:53:39.807Z,103094.16
2022-10-19T04:56:19.402Z,103095.88
2022-10-19T04:58:46.769Z,103098.50
2022-10-19T05:01:21.661Z,103096.81
2022-10-19T05:03:48.894Z,103095.06
2022-10-19T05:06:15.774Z,103095.13
2022-10-19T05:08:42.224Z,103094.31
2022-10-19T05:11:12.533Z,103092.59
2022-10-19T05:13:39.177Z,103085.66
2022-10-19T05:16:07.128Z,103085.69
2022-10-19T05:18:34.718Z,103081.38
2022-10-19T05:21:06.462Z,103087.44
2022-10-19T05:23:33.841Z,103082.28
2022-10-19T05:26:15.426Z,103082.28
2022-10-19T05:28:42.175Z,103082.34
2022-10-19T05:31:13.137Z,103074.56
2022-10-19T05:33:40.545Z,103074.59
2022-10-19T05:36:37.277Z,103072.03
2022-10-19T05:39:08.292Z,103071.06
2022-10-19T05:41:34.970Z,103070.22
2022-10-19T05:44:02.600Z,103077.19
2022-10-19T05:46:30.198Z,103067.72
2022-10-19T05:48:58.603Z,103079.06
2022-10-19T05:51:26.659Z,103080.09
2022-10-19T05:53:54.581Z,103072.25
2022-10-19T05:56:26.592Z,103076.56
2022-10-19T05:58:54.808Z,103071.34
2022-10-19T06:01:21.317Z,103069.56
2022-10-19T06:03:51.924Z,103071.16
2022-10-19T06:06:19.144Z,103071.97
2022-10-19T06:08:46.150Z,103079.84
2022-10-19T06:11:16.609Z,103077.28
2022-10-19T06:13:44.982Z,103068.66
2022-10-19T06:16:13.909Z,103073.84
2022-10-19T06:18:41.797Z,103062.53
2022-10-19T06:21:11.565Z,103059.94
2022-10-19T06:23:38.329Z,103073.00
2022-10-19T06:26:07.722Z,103079.13
2022-10-19T06:28:35.542Z,103084.34
2022-10-19T06:31:02.400Z,103086.06
2022-10-19T06:33:31.413Z,103080.84
2022-10-19T06:36:13.973Z,103084.22
2022-10-19T06:38:41.309Z,103078.84
2022-10-19T06:41:07.936Z,103083.06
2022-10-19T06:43:35.070Z,103083.78
2022-10-19T06:46:06.296Z,103083.66
2022-10-19T06:48:33.037Z,103087.09
2022-10-19T06:51:02.166Z,103081.72
2022-10-19T06:53:29.111Z,103084.94
2022-10-19T06:55:59.167Z,103075.97
2022-10-19T06:58:26.059Z,103067.03
2022-10-19T07:01:00.091Z,103062.31
2022-10-19T07:03:28.111Z,103054.91
2022-10-19T07:05:55.970Z,103057.00
2022-10-19T07:08:22.823Z,103060.88
2022-10-19T07:10:51.207Z,103061.13
2022-10-19T07:13:17.998Z,103058.44
2022-10-19T07:15:44.348Z,103058.25
2022-10-19T07:18:10.746Z,103056.19
2022-10-19T07:20:37.104Z,103054.00
2022-10-19T07:23:03.449Z,103048.47
2022-10-19T07:25:30.606Z,103055.81
2022-10-19T07:27:57.038Z,103056.09
2022-10-19T07:30:24.210Z,103051.94
2022-10-19T07:32:50.583Z,103042.03
2022-10-19T07:35:17.000Z,103046.78
2022-10-19T07:37:43.350Z,103039.78
2022-10-19T07:40:10.324Z,103042.44
2022-10-19T07:42:38.015Z,103054.00
2022-10-19T07:45:04.679Z,103056.56
2022-10-19T07:47:31.140Z,103057.84
2022-10-19T07:49:57.660Z,103053.78
2022-10-19T07:52:24.095Z,103052.59
2022-10-19T07:54:50.626Z,103056.97
2022-10-19T07:57:16.976Z,103050.34
2022-10-19T07:59:43.292Z,103047.31
2022-10-19T08:02:15.945Z,103047.00
2022-10-19T08:04:59.784Z,103038.19
2022-10-19T08:07:28.344Z,103041.09
2022-10-19T08:09:54.849Z,103047.28
2022-10-19T08:12:21.261Z,103039.78
2022-10-19T08:14:48.186Z,103042.75
2022-10-19T08:17:17.311Z,103043.44
2022-10-19T08:19:44.725Z,103037.59
2022-10-19T08:22:11.497Z,103033.75
2022-10-19T08:24:37.905Z,103034.94
2022-10-19T08:27:04.839Z,103042.88
2022-10-19T08:29:31.756Z,103038.50
2022-10-19T08:31:58.959Z,103030.22
2022-10-19T08:34:25.419Z,103036.53
2022-10-19T08:36:51.796Z,103030.75
2022-10-19T08:39:18.255Z,103026.66
2022-10-19T08:41:59.757Z,103013.03
2022-10-19T08:44:47.577Z,103025.50
2022-10-19T08:47:19.706Z,103015.72
2022-10-19T08:49:49.064Z,103008.56
2022-10-19T08:52:29.566Z,103001.97
2022-10-19T08:55:08.866Z,103004.63
2022-10-19T08:57:53.447Z,103008.72
2022-10-19T09:06:31.809Z,103000.50
2022-10-19T09:08:59.053Z,102988.97
2022-10-19T09:11:31.077Z,102981.50
2022-10-19T09:14:10.430Z,102974.00
2022-10-19T09:16:37.013Z,102979.22
2022-10-19T09:19:16.222Z,102970.16
2022-10-19T09:21:51.479Z,102975.25
2022-10-19T09:24:29.003Z,102965.16
2022-10-19T09:26:59.328Z,102981.16
2022-10-19T09:29:44.362Z,102975.66
2022-10-19T09:32:18.200Z,102966.28
2022-10-19T09:34:51.574Z,102978.25
2022-10-19T09:37:25.739Z,102970.63
2022-10-19T09:39:54.949Z,102969.91
2022-10-19T09:42:30.365Z,102963.09
2022-10-19T09:44:59.038Z,102956.03
2022-10-19T09:47:31.418Z,102953.66
2022-10-19T09:50:18.231Z,102949.53
2022-10-19T09:52:46.653Z,102943.50
2022-10-19T09:55:36.348Z,102939.81
2022-10-19T09:58:06.039Z,102942.44
2022-10-19T10:00:38.849Z,102945.63
2022-10-19T10:03:06.473Z,102946.41
2022-10-19T10:05:38.438Z,102948.59
2022-10-19T10:08:13.538Z,102954.56
2022-10-19T10:10:45.165Z,102949.75
2022-10-19T10:13:24.136Z,102945.41
2022-10-19T10:15:56.291Z,102938.09
2022-10-19T10:18:24.746Z,102932.16
2022-10-19T10:21:06.039Z,102941.19
2022-10-19T10:23:36.627Z,102924.88
2022-10-19T10:26:05.244Z,102935.50
2022-10-19T10:28:31.849Z,102945.47
2022-10-19T10:31:08.718Z,102937.69
2022-10-19T10:33:44.935Z,102937.06
2022-10-19T10:36:12.875Z,102945.22
2022-10-19T10:38:43.463Z,102934.78
2022-10-19T10:41:14.636Z,102926.38
2022-10-19T10:43:53.840Z,102919.91
2022-10-19T10:46:29.401Z,102913.34
2022-10-19T10:48:58.855Z,102913.16
2022-10-19T10:51:37.495Z,102904.88
2022-10-19T10:54:26.632Z,102910.47
2022-10-19T10:57:04.430Z,102904.09
2022-10-19T10:59:45.766Z,102897.53
2022-10-19T11:02:40.407Z,102886.84
2022-10-19T11:05:17.105Z,102878.84
2022-10-19T11:07:46.448Z,102879.47
2022-10-19T11:10:35.166Z,102880.66
2022-10-19T11:13:04.542Z,102870.91
2022-10-19T11:15:37.405Z,102868.75
2022-10-19T11:18:14.701Z,102858.56
2022-10-19T11:20:53.167Z,102855.47
2022-10-19T11:23:30.792Z,102852.28
2022-10-19T11:26:28.302Z,102853.38
2022-10-19T11:29:16.856Z,102853.72
2022-10-19T11:31:48.625Z,102839.41
2022-10-19T11:34:45.576Z,102835.75
2022-10-19T11:37:49.388Z,102828.00
2022-10-19T11:40:33.192Z,102810.41
2022-10-19T11:43:11.227Z,102809.06
2022-10-19T11:46:05.181Z,102816.09
2022-10-19T11:49:13.612Z,102813.78
2022-10-19T11:52:01.806Z,102800.19
2022-10-19T11:54:57.280Z,102803.75
2022-10-19T11:57:32.632Z,102786.56
2022-10-19T12:00:15.061Z,102781.91
2022-10-19T12:03:08.703Z,102778.75
2022-10-19T12:05:44.211Z,102774.50
2022-10-19T12:08:13.472Z,102765.78
2022-10-19T12:11:03.903Z,102749.09
2022-10-19T12:13:49.099Z,102763.66
2022-10-19T12:16:18.523Z,102758.00
2022-10-19T12:18:51.947Z,102751.75
2022-10-19T12:21:29.795Z,102741.75
2022-10-19T12:23:58.571Z,102741.91
2022-10-19T12:26:27.780Z,102750.72
2022-10-19T12:28:57.693Z,102747.81
2022-10-19T12:31:26.012Z,102752.44
2022-10-19T12:34:10.280Z,102749.34
2022-10-19T12:37:01.670Z,102735.81
2022-10-19T12:39:39.272Z,102730.38
2022-10-19T12:42:40.843Z,102731.69
2022-10-19T12:45:25.284Z,102723.13
2022-10-19T12:48:13.039Z,102707.31
2022-10-19T12:50:48.569Z,102709.38
2022-10-19T12:53:36.071Z,102703.91
2022-10-19T12:56:03.984Z,102700.88
2022-10-19T12:58:54.429Z,102690.00
2022-10-19T13:01:29.537Z,102685.28
2022-10-19T13:04:24.649Z,102678.28
2022-10-19T13:06:58.422Z,102669.69
2022-10-19T13:09:33.714Z,102672.09
2022-10-19T13:12:19.473Z,102662.16
2022-10-19T13:15:01.967Z,102660.94
2022-10-19T13:17:34.747Z,102655.63
2022-10-19T13:20:13.754Z,102649.22
2022-10-19T13:22:41.640Z,102641.84
2022-10-19T13:25:19.755Z,102632.66
2022-10-19T13:27:47.715Z,102629.78
2022-10-19T13:30:35.856Z,102625.91
2022-10-19T13:33:33.429Z,102636.19
2022-10-19T13:35:59.949Z,102625.19
2022-10-19T13:38:43.275Z,102624.59
2022-10-19T13:41:25.813Z,102624.44
2022-10-19T13:44:07.099Z,102624.69
2022-10-19T13:46:51.695Z,102619.59
2022-10-19T13:49:27.856Z,102618.75
2022-10-19T13:52:30.716Z,102619.13
2022-10-19T13:55:14.086Z,102609.72
2022-10-19T13:58:19.232Z,102608.00
2022-10-19T14:01:09.443Z,102609.94
2022-10-19T14:04:04.656Z,102608.97
2022-10-19T14:06:38.592Z,102614.28
2022-10-19T14:09:23.727Z,102609.44
2022-10-19T14:11:53.022Z,102620.31
2022-10-19T14:14:24.668Z,102611.00
2022-10-19T14:17:03.799Z,102617.16
2022-10-19T14:19:42.856Z,102611.59
2022-10-19T14:22:40.546Z,102618.00
2022-10-19T14:25:17.505Z,102618.53
2022-10-19T14:27:45.079Z,102619.75
2022-10-19T14:30:23.195Z,102622.16
2022-10-19T14:32:49.936Z,102620.72
2022-10-19T14:35:22.082Z,102620.09
2022-10-19T14:37:48.995Z,102612.97
2022-10-19T14:40:28.407Z,102608.97
2022-10-19T14:42:56.902Z,102607.41
2022-10-19T14:45:28.904Z,102612.47
2022-10-19T14:48:04.130Z,102602.94
2022-10-19T14:50:43.196Z,102604.97
2022-10-19T14:53:28.209Z,102591.94
2022-10-19T14:55:58.787Z,102593.63
2022-10-19T14:58:27.552Z,102584.94
2022-10-19T15:00:54.959Z,102582.75
2022-10-19T15:03:28.127Z,102581.78
2022-10-19T15:05:59.247Z,102575.50
2022-10-19T15:08:43.633Z,102562.47
2022-10-19T15:11:26.898Z,102567.03
2022-10-19T15:14:07.903Z,102559.78
2022-10-19T15:16:55.106Z,102555.44
2022-10-19T15:19:37.577Z,102552.53
2022-10-19T15:22:19.230Z,102553.94
2022-10-19T15:24:55.494Z,102546.47
2022-10-19T15:27:30.139Z,102544.41
2022-10-19T15:30:00.178Z,102543.16
2022-10-19T15:32:32.071Z,102537.06
2022-10-19T15:34:58.858Z,102520.16
2022-10-19T15:39:56.576Z,102525.81
2022-10-19T15:42:34.863Z,102515.34
2022-10-19T15:45:02.215Z,102518.75
2022-10-19T15:47:28.791Z,102531.06
2022-10-19T15:49:55.636Z,102540.28
2022-10-19T15:52:25.036Z,102523.03
2022-10-19T15:54:56.628Z,102521.00
2022-10-19T15:57:27.805Z,102515.63
2022-10-19T15:59:56.147Z,102507.34
2022-10-19T16:02:25.038Z,102502.47
2022-10-19T16:04:54.768Z,102499.47
2022-10-19T16:07:29.247Z,102495.78
2022-10-19T16:09:55.701Z,102490.69
2022-10-19T16:12:24.204Z,102483.94
2022-10-19T16:14:50.779Z,102479.06
2022-10-19T16:17:17.151Z,102481.66
2022-10-19T16:19:44.008Z,102472.13
2022-10-19T16:22:11.731Z,102474.25
2022-10-19T16:24:38.270Z,102477.81
2022-10-19T16:27:05.155Z,102468.09
2022-10-19T16:29:31.927Z,102464.34
2022-10-19T16:31:58.479Z,102471.94
2022-10-19T16:34:24.884Z,102473.28
2022-10-19T16:36:51.291Z,102482.75
2022-10-19T16:39:17.747Z,102479.16
2022-10-19T16:41:44.260Z,102475.03
2022-10-19T16:44:12.454Z,102479.31
2022-10-19T16:46:38.842Z,102476.59
2022-10-19T16:49:05.151Z,102467.38
2022-10-19T16:51:40.135Z,102472.84
2022-10-19T16:54:08.961Z,102471.34
2022-10-19T16:56:36.686Z,102467.75
2022-10-19T16:59:06.050Z,102457.19
2022-10-19T17:01:34.503Z,102458.31
2022-10-19T17:04:01.409Z,102446.44
2022-10-19T17:06:28.460Z,102449.66
2022-10-19T17:11:44.776Z,102443.63
2022-10-19T17:14:12.406Z,102434.22
2022-10-19T17:16:39.534Z,102441.28
2022-10-19T17:19:07.993Z,102445.81
2022-10-19T17:21:40.042Z,102437.19
2022-10-19T17:24:08.701Z,102433.81
2022-10-19T17:26:39.735Z,102427.69
2022-10-19T17:29:06.707Z,102432.31
2022-10-19T17:31:34.006Z,102427.88
2022-10-19T17:34:01.816Z,102427.03
2022-10-19T17:36:31.222Z,102419.09
2022-10-19T17:39:01.450Z,102427.03
2022-10-19T17:41:28.584Z,102434.00
2022-10-19T17:43:56.697Z,102432.50
2022-10-19T17:46:26.605Z,102425.91
2022-10-19T17:48:53.355Z,102426.09
2022-10-19T17:51:27.130Z,102423.75
2022-10-19T17:53:56.195Z,102418.19
2022-10-19T17:56:22.883Z,102422.72
2022-10-19T17:58:50.090Z,102418.09
2022-10-19T18:01:18.306Z,102416.22
2022-10-19T18:03:44.630Z,102411.94
2022-10-19T18:06:14.474Z,102416.09
2022-10-19T18:08:44.821Z,102423.91
2022-10-19T18:11:14.943Z,102427.78
2022-10-19T18:13:42.357Z,102428.56
2022-10-19T18:16:12.090Z,102434.56
2022-10-19T18:18:40.474Z,102433.53
2022-10-19T18:21:11.791Z,102437.22
2022-10-19T18:23:38.442Z,102436.28
2022-10-19T18:26:07.914Z,102436.28
2022-10-19T18:28:34.831Z,102426.09
2022-10-19T18:31:13.414Z,102431.75
2022-10-19T18:33:40.671Z,102428.94
2022-10-19T18:36:09.079Z,102413.66
2022-10-19T18:38:35.968Z,102415.56
2022-10-19T18:41:03.355Z,102410.50
2022-10-19T18:43:29.760Z,102408.97
2022-10-19T18:45:58.259Z,102403.22
2022-10-19T18:48:26.691Z,102397.09
2022-10-19T18:50:53.118Z,102385.72
2022-10-19T18:53:19.927Z,102381.44
2022-10-19T18:55:46.435Z,102386.72
2022-10-19T18:58:12.747Z,102382.69
2022-10-19T19:00:45.531Z,102377.50
2022-10-19T19:03:12.217Z,102379.38
2022-10-19T19:05:38.530Z,102386.72
2022-10-19T19:08:04.893Z,102393.13
2022-10-19T19:10:31.231Z,102385.03
2022-10-19T19:12:57.598Z,102383.50
2022-10-19T19:15:23.924Z,102385.50
2022-10-19T19:17:54.039Z,102361.28
2022-10-19T19:20:20.370Z,102358.81
2022-10-19T19:22:46.711Z,102367.03
2022-10-19T19:25:13.108Z,102365.59
2022-10-19T19:30:10.956Z,102349.78
2022-10-19T19:32:37.452Z,102343.84
2022-10-19T19:35:04.234Z,102328.34
2022-10-19T19:37:30.915Z,102319.84
2022-10-19T19:39:57.257Z,102312.53
2022-10-19T19:42:27.773Z,102306.41
2022-10-19T19:44:54.350Z,102297.75
2022-10-19T19:47:20.694Z,102296.16
2022-10-19T19:49:47.035Z,102290.03
2022-10-19T19:52:13.352Z,102295.19
2022-10-19T19:54:39.778Z,102276.19
2022-10-19T19:57:07.595Z,102273.75
2022-10-19T19:59:33.906Z,102273.75
2022-10-19T20:02:01.343Z,102274.13
2022-10-19T20:04:27.723Z,102275.72
2022-10-19T20:06:54.112Z,102269.59
2022-10-19T20:09:20.425Z,102271.59
2022-10-19T20:11:46.757Z,102265.84
2022-10-19T20:14:13.139Z,102261.69
2022-10-19T20:16:40.211Z,102261.03
2022-10-19T20:19:11.978Z,102249.63
2022-10-19T20:21:39.535Z,102258.66
2022-10-19T20:24:06.244Z,102242.53
2022-10-19T20:26:32.912Z,102243.38
2022-10-19T20:29:00.920Z,102253.91
2022-10-19T20:33:54.607Z,102250.38
2022-10-19T20:36:24.077Z,102239.56
2022-10-19T20:38:55.846Z,102241.53
2022-10-19T20:41:23.800Z,102237.47
2022-10-19T20:43:50.773Z,102226.47
2022-10-19T20:46:21.992Z,102222.31
2022-10-19T20:48:50.687Z,102223.25
2022-10-19T20:51:18.677Z,102216.47
2022-10-19T20:53:48.116Z,102207.81
2022-10-19T20:56:17.042Z,102209.66
2022-10-19T20:58:44.936Z,102200.09
2022-10-19T21:01:17.294Z,102204.56
2022-10-19T21:03:48.620Z,102207.56
2022-10-19T21:06:15.572Z,102204.94
2022-10-19T21:08:42.039Z,102201.75
2022-10-19T21:11:19.771Z,102201.06
2022-10-19T21:13:47.123Z,102205.72
2022-10-19T21:16:14.949Z,102199.47
2022-10-19T21:18:42.218Z,102204.13
2022-10-19T21:21:13.091Z,102199.06
2022-10-19T21:23:39.926Z,102199.06
2022-10-19T21:26:06.415Z,102201.50
2022-10-19T21:28:32.787Z,102206.00
2022-10-19T21:31:03.886Z,102199.22
2022-10-19T21:33:30.311Z,102194.31
2022-10-19T21:35:56.840Z,102197.69
2022-10-19T21:38:23.191Z,102191.34
2022-10-19T21:40:49.496Z,102189.06
2022-10-19T21:43:15.795Z,102186.38
2022-10-19T21:45:42.096Z,102187.66
2022-10-19T21:48:08.439Z,102188.75
2022-10-19T21:50:34.771Z,102181.97
2022-10-19T21:53:01.085Z,102181.28
2022-10-19T21:55:29.531Z,102185.91
2022-10-19T21:57:55.860Z,102177.22
2022-10-19T22:00:22.184Z,102180.63
2022-10-19T22:02:48.537Z,102177.75
2022-10-19T22:05:14.947Z,102183.53
2022-10-19T22:07:41.415Z,102167.75
2022-10-19T22:10:08.095Z,102166.63
2022-10-19T22:12:34.826Z,102149.94
2022-10-19T22:15:01.440Z,102151.81
2022-10-19T22:17:27.803Z,102149.09
2022-10-19T22:19:54.145Z,102142.34
2022-10-19T22:22:20.497Z,102148.50
2022-10-19T22:24:46.859Z,102156.88
2022-10-19T22:27:13.190Z,102151.97
2022-10-19T22:29:39.587Z,102148.09
2022-10-19T22:32:05.916Z,102141.66
2022-10-19T22:34:32.228Z,102131.47
2022-10-19T22:36:59.238Z,102134.09
2022-10-19T22:39:27.790Z,102124.34
2022-10-19T22:42:06.646Z,102107.59
2022-10-19T22:44:33.011Z,102117.41
2022-10-19T22:46:59.386Z,102120.13
2022-10-19T22:49:25.704Z,102113.19
2022-10-19T22:51:52.037Z,102111.84
2022-10-19T22:54:18.344Z,102100.81
2022-10-19T22:56:44.727Z,102094.03
2022-10-19T22:59:11.087Z,102089.28
2022-10-19T23:01:37.517Z,102077.25
2022-10-19T23:04:04.134Z,102080.81
2022-10-19T23:06:30.435Z,102077.59
2022-10-19T23:08:56.876Z,102085.06
2022-10-19T23:11:23.301Z,102071.84
2022-10-19T23:13:49.879Z,102070.81
2022-10-19T23:16:16.350Z,102076.25
2022-10-19T23:18:42.793Z,102074.38
2022-10-19T23:21:12.039Z,102085.66
2022-10-19T23:23:39.532Z,102066.50
2022-10-19T23:26:07.849Z,102059.66
2022-10-19T23:28:36.467Z,102071.00
2022-10-19T23:31:08.282Z,102056.34
2022-10-19T23:33:35.330Z,102058.81
2022-10-19T23:36:07.401Z,102049.06
2022-10-19T23:38:34.707Z,102042.88
2022-10-19T23:41:01.448Z,102035.78
2022-10-19T23:43:28.053Z,102031.34
2022-10-19T23:45:54.419Z,102034.94
2022-10-19T23:48:20.755Z,102034.03
2022-10-19T23:50:47.143Z,102036.69
2022-10-19T23:53:13.529Z,102034.97
2022-10-19T23:55:39.835Z,102022.19
2022-10-19T23:58:06.162Z,102027.63
